Storm Events Database

Event Details

Event Thunderstorm Wind
Magnitude 52 kts.
State TEXAS
County/Area COLLIN
WFO FWD
Begin Date 05/04/2012 20:35:00 CST-6
Begin Range 0
Begin Azimuth N
Begin Location PROSPER
Begin Lat/Lon 33.23/-96.82
End Date 05/04/2012 20:35:00 CST-6
Deaths Direct/Indirect 0/0 (fatality details below, when available...)
Injuries Direct/Indirect 0/0
Property Damage 5.00K
Crop Damage 0.00K
Episode Narrative A shortwave located northwest of the area and a dryline approaching from the Texas Panhandle provided enough lift for thunderstorms to form over Northwest Texas during the afternoon hours. These thunderstorms tracked into the western counties of North Texas, and then a few of the storms clustered together and moved to the southeast. Severe weather was reported mainly along and south of I-20 and west of I-35. These storms produced hail up to the size of golf balls and mainly 60 mph winds. In addition, one severe thunderstorm producing winds up to 70 mph tracked along the Red River. This thunderstorm also produced 60 mph outflow winds that did some minor damage.
Event Narrative Strong outflow winds around 60 mph were reported in Prosper. The strong outflow was from a thunderstorm to the northwest of the city. Fences and fence posts were blown down.


All events for this episode:

Location County/Zone St. Date Time T.Z. Type Mag Dth Inj PrD CrD
Totals: 0 0 159.00K 0.00K
PROFFITT YOUNG CO. TX 05/04/2012 15:42 CST-6 Hail 0.88 in. 0 0 0.00K 0.00K
OLNEY YOUNG CO. TX 05/04/2012 15:50 CST-6 Hail 1.00 in. 0 0 0.00K 0.00K
GRAFORD PALO PINTO CO. TX 05/04/2012 17:15 CST-6 Hail 1.00 in. 0 0 0.00K 0.00K
MINERAL WELLS PALO PINTO CO. TX 05/04/2012 17:27 CST-6 Hail 1.00 in. 0 0 0.00K 0.00K
GUNSIGHT STEPHENS CO. TX 05/04/2012 17:34 CST-6 Thunderstorm Wind 52 kts. EG 0 0 0.00K 0.00K
CISCO EASTLAND CO. TX 05/04/2012 18:00 CST-6 Hail 1.25 in. 0 0 0.00K 0.00K
LIPAN HOOD CO. TX 05/04/2012 18:06 CST-6 Thunderstorm Wind 52 kts. EG 0 0 4.00K 0.00K
LIPAN HOOD CO. TX 05/04/2012 18:06 CST-6 Hail 0.75 in. 0 0 0.00K 0.00K
WEATHERFORD PARKER CO. TX 05/04/2012 18:15 CST-6 Hail 1.00 in. 0 0 0.00K 0.00K
LIPAN HOOD CO. TX 05/04/2012 18:15 CST-6 Hail 1.75 in. 0 0 7.00K 0.00K
CARBON EASTLAND CO. TX 05/04/2012 18:20 CST-6 Hail 1.75 in. 0 0 15.00K 0.00K
GRANBURY MUNI ARPT HOOD CO. TX 05/04/2012 18:25 CST-6 Thunderstorm Wind 52 kts. EG 0 0 15.00K 0.00K
WAPLES HOOD CO. TX 05/04/2012 18:30 CST-6 Thunderstorm Wind 52 kts. EG 0 0 12.00K 0.00K
ANNETA PARKER CO. TX 05/04/2012 18:40 CST-6 Thunderstorm Wind 56 kts. EG 0 0 0.00K 0.00K
MINERAL WELLS PALO PINTO CO. TX 05/04/2012 18:45 CST-6 Hail 1.00 in. 0 0 0.00K 0.00K
(MWL)MINERAL WELLS A PALO PINTO CO. TX 05/04/2012 18:47 CST-6 Hail 1.50 in. 0 0 5.00K 0.00K
MILLSAP PARKER CO. TX 05/04/2012 18:48 CST-6 Hail 1.75 in. 0 0 10.00K 0.00K
CRESSON HOOD CO. TX 05/04/2012 18:56 CST-6 Hail 1.00 in. 0 0 0.00K 0.00K
FT WORTH LUCK ARPT TARRANT CO. TX 05/04/2012 19:22 CST-6 Thunderstorm Wind 52 kts. EG 0 0 0.00K 0.00K
MONTAGUE MONTAGUE CO. TX 05/04/2012 19:25 CST-6 Hail 1.00 in. 0 0 0.00K 0.00K
CLEBURNE JOHNSON CO. TX 05/04/2012 19:28 CST-6 Thunderstorm Wind 50 kts. MG 0 0 3.00K 0.00K
CLEBURNE JOHNSON CO. TX 05/04/2012 19:35 CST-6 Thunderstorm Wind 52 kts. EG 0 0 5.00K 0.00K
SIUELLS BEND COOKE CO. TX 05/04/2012 19:42 CST-6 Thunderstorm Wind 61 kts. EG 0 0 7.00K 0.00K
ALVARADO JOHNSON CO. TX 05/04/2012 19:47 CST-6 Thunderstorm Wind 52 kts. EG 0 0 5.00K 0.00K
LINDSAY COOKE CO. TX 05/04/2012 19:47 CST-6 Thunderstorm Wind 55 kts. MG 0 0 4.00K 0.00K
GAINESVILLE COOKE CO. TX 05/04/2012 19:58 CST-6 Thunderstorm Wind 52 kts. EG 0 0 6.00K 0.00K
HOPE COOKE CO. TX 05/04/2012 20:00 CST-6 Hail 0.88 in. 0 0 0.00K 0.00K
MIDLOTHIAN ELLIS CO. TX 05/04/2012 20:07 CST-6 Thunderstorm Wind 52 kts. EG 0 0 5.00K 0.00K
BURNS COOKE CO. TX 05/04/2012 20:10 CST-6 Thunderstorm Wind 56 kts. EG 0 0 5.00K 0.00K
VALLEY VIEW COOKE CO. TX 05/04/2012 20:10 CST-6 Thunderstorm Wind 52 kts. EG 0 0 4.00K 0.00K
WHITESBORO GRAYSON CO. TX 05/04/2012 20:15 CST-6 Thunderstorm Wind 61 kts. EG 0 0 7.00K 0.00K
CELINA COLLIN CO. TX 05/04/2012 20:25 CST-6 Thunderstorm Wind 52 kts. EG 0 0 20.00K 0.00K
NAVO DENTON CO. TX 05/04/2012 20:25 CST-6 Thunderstorm Wind 52 kts. EG 0 0 5.00K 0.00K
NAVO DENTON CO. TX 05/04/2012 20:27 CST-6 Thunderstorm Wind 52 kts. EG 0 0 5.00K 0.00K
PARVIN DENTON CO. TX 05/04/2012 20:30 CST-6 Thunderstorm Wind 52 kts. EG 0 0 5.00K 0.00K
PROSPER COLLIN CO. TX 05/04/2012 20:35 CST-6 Thunderstorm Wind 52 kts. EG 0 0 5.00K 0.00K
PARIS FLYNG TGR ARPT LAMAR CO. TX 05/04/2012 22:15 CST-6 Hail 0.88 in. 0 0 0.00K 0.00K
Totals: 0 0 159.00K 0.00K